Terminal Aerodrome Forecast
Issued by NWS

Home | Current Version | Previous Version | Text Only | Print | Product List | Glossary On
Versions: 1 2 3 4 5 6 7 8 9 10 11 12 13
000
FTUS43 KLSX 220900 AAA
TAFUIN
TAF AMD
KUIN 220903Z 2209/2306 19006KT 6SM BR SKC
     FM221500 21010KT P6SM SCT250
     FM230000 25006KT P6SM VCTS BKN060CB
     FM230400 35007KT P6SM SCT060 BKN250=

USA.gov is the U.S. government's official web portal to all federal, state and local government web resources and services.